Time;durP1;ratioP1;P1;durP2;ratioP2;P2;SDS_P1;SDS_P2;PMS_P1;PMS_P2;Temp;Humidity;BMP_temperature;BMP_pressure;BME280_temperature;BME280_humidity;BME280_pressure;Samples;Min_cycle;Max_cycle;Signal;HPM_P1;HPM_P2
2023/06/13 00:01:37;;;;;;;;;;;;;;;13.40;100.00;97030.94;110305;1242;70894;-74
2023/06/13 00:04:06;;;;;;;;;;;;;;;13.37;100.00;97030.30;110267;1241;68456;-73
2023/06/13 00:06:37;;;;;;;;;;;;;;;13.35;100.00;97027.02;110292;1244;68105;-73
2023/06/13 00:09:07;;;;;;;;;;;;;;;13.29;100.00;97024.85;110166;1242;59745;-73
2023/06/13 00:11:36;;;;;;;;;;;;;;;13.30;100.00;97022.56;110156;1240;59719;-73
2023/06/13 00:14:12;;;;;;;;;;;;;;;13.28;100.00;97020.60;110179;1240;70648;-74
2023/06/13 00:16:44;;;;;;;;;;;;;;;13.27;100.00;97018.63;110151;1241;69517;-73
2023/06/13 00:19:14;;;;;;;;;;;;;;;13.24;100.00;97014.45;110116;1240;68606;-73
2023/06/13 00:21:45;;;;;;;;;;;;;;;13.22;100.00;97013.21;110147;1242;59700;-73
2023/06/13 00:24:15;;;;;;;;;;;;;;;13.21;100.00;97012.94;110168;1242;59751;-73
2023/06/13 00:26:45;;;;;;;;;;;;;;;13.19;100.00;97007.19;110200;1243;71427;-75
2023/06/13 00:29:15;;;;;;;;;;;;;;;13.18;100.00;97008.16;110692;1243;69401;-72
2023/06/13 00:31:48;;;;;;;;;;;;;;;13.15;100.00;97008.95;110386;1242;68717;-73
2023/06/13 00:34:21;;;;;;;;;;;;;;;13.14;100.00;97013.46;110185;1242;59689;-73
2023/06/13 00:36:56;;;;;;;;;;;;;;;13.09;100.00;97003.58;110216;1240;59670;-74
2023/06/13 00:39:27;;;;;;;;;;;;;;;13.08;100.00;96997.34;110136;1242;70741;-72
2023/06/13 00:42:00;;;;;;;;;;;;;;;13.06;100.00;96996.95;110161;1240;68616;-73
2023/06/13 00:44:31;;;;;;;;;;;;;;;13.06;100.00;96996.82;110130;1243;68124;-72
2023/06/13 00:47:05;;;;;;;;;;;;;;;13.06;100.00;96993.15;110084;1244;59737;-72
2023/06/13 00:49:44;;;;;;;;;;;;;;;13.07;100.00;96989.74;110150;1242;59710;-73
2023/06/13 00:52:16;;;;;;;;;;;;;;;13.06;100.00;96987.67;110197;1242;71405;-73
2023/06/13 00:54:47;;;;;;;;;;;;;;;13.09;100.00;96990.94;110176;1244;69185;-73
2023/06/13 00:57:18;;;;;;;;;;;;;;;13.12;100.00;96987.93;110098;1241;70232;-73
2023/06/13 00:59:49;;;;;;;;;;;;;;;13.12;100.00;96988.54;110018;1244;59737;-74
2023/06/13 01:02:20;;;;;;;;;;;;;;;13.12;100.00;96984.71;110344;1242;59671;-72
2023/06/13 01:04:53;;;;;;;;;;;;;;;13.13;100.00;96984.81;110162;1243;70281;-73
2023/06/13 01:07:30;;;;;;;;;;;;;;;13.14;100.00;96983.10;110142;1244;69259;-73
2023/06/13 01:10:03;;;;;;;;;;;;;;;13.17;100.00;96979.40;110171;1242;68567;-74
2023/06/13 01:13:00;;;;;;;;;;;;;;;13.17;100.00;96977.94;109888;1244;59744;-73
2023/06/13 01:15:32;;;;;;;;;;;;;;;13.19;100.00;96977.80;110158;1242;59703;-73
2023/06/13 01:18:03;;;;;;;;;;;;;;;13.18;100.00;96974.67;110159;1240;71238;-74
2023/06/13 01:20:36;;;;;;;;;;;;;;;13.18;100.00;96972.97;110332;1242;69030;-74
2023/06/13 01:23:06;;;;;;;;;;;;;;;13.16;100.00;96974.20;110148;1240;69260;-74
2023/06/13 01:25:47;;;;;;;;;;;;;;;13.17;100.00;96970.77;110177;1240;59672;-74
2023/06/13 01:28:22;;;;;;;;;;;;;;;13.17;100.00;96970.06;110162;1243;59697;-73
2023/06/13 01:30:55;;;;;;;;;;;;;;;13.18;100.00;96968.80;110171;1242;71621;-74
2023/06/13 01:33:30;;;;;;;;;;;;;;;13.19;100.00;96968.39;110374;1242;69104;-73
2023/06/13 01:36:02;;;;;;;;;;;;;;;13.20;100.00;96963.89;110716;1242;68358;-72
2023/06/13 01:38:32;;;;;;;;;;;;;;;13.21;100.00;96963.07;110153;1243;59785;-73
2023/06/13 01:41:03;;;;;;;;;;;;;;;13.23;100.00;96959.04;110082;1244;59700;-74
2023/06/13 01:43:34;;;;;;;;;;;;;;;13.25;100.00;96959.25;110028;1244;71403;-73
2023/06/13 01:46:13;;;;;;;;;;;;;;;13.24;100.00;96956.69;109924;1243;69307;-73
2023/06/13 01:49:02;;;;;;;;;;;;;;;13.23;100.00;96958.74;110141;1246;69282;-73
2023/06/13 01:51:43;;;;;;;;;;;;;;;13.22;100.00;96958.48;109850;1241;59752;-74
2023/06/13 01:54:19;;;;;;;;;;;;;;;13.22;100.00;96963.73;110052;1244;59751;-74
2023/06/13 01:56:56;;;;;;;;;;;;;;;13.22;100.00;96961.46;109911;1244;71295;-74
2023/06/13 01:59:27;;;;;;;;;;;;;;;13.21;100.00;96960.11;109916;1242;69343;-74
2023/06/13 02:01:58;;;;;;;;;;;;;;;13.20;100.00;96959.48;110003;1244;68336;-73
2023/06/13 02:04:29;;;;;;;;;;;;;;;13.17;100.00;96959.81;109954;1244;59673;-73
2023/06/13 02:07:00;;;;;;;;;;;;;;;13.17;100.00;96960.33;109938;1242;59684;-73
2023/06/13 02:09:30;;;;;;;;;;;;;;;13.17;100.00;96962.73;109857;1244;71457;-73
2023/06/13 02:12:00;;;;;;;;;;;;;;;13.17;100.00;96959.45;110066;1244;68424;-73
2023/06/13 02:14:36;;;;;;;;;;;;;;;13.16;100.00;96963.39;110069;1244;69621;-73
2023/06/13 02:17:07;;;;;;;;;;;;;;;13.16;100.00;96966.69;110055;1244;59746;-73
2023/06/13 02:19:40;;;;;;;;;;;;;;;13.16;100.00;96961.77;110022;1244;59730;-73
2023/06/13 02:22:14;;;;;;;;;;;;;;;13.16;100.00;96963.54;110000;1244;71468;-73
2023/06/13 02:24:47;;;;;;;;;;;;;;;13.15;100.00;96957.32;110012;1243;68652;-73
2023/06/13 02:27:18;;;;;;;;;;;;;;;13.14;100.00;96956.20;109950;1244;69296;-74
2023/06/13 02:29:51;;;;;;;;;;;;;;;13.12;100.00;96952.65;110047;1243;59695;-73
2023/06/13 02:32:23;;;;;;;;;;;;;;;13.13;100.00;96953.98;109785;1244;59731;-74
2023/06/13 02:34:53;;;;;;;;;;;;;;;13.14;100.00;96953.80;110096;1244;71390;-74
2023/06/13 02:37:24;;;;;;;;;;;;;;;13.14;100.00;96952.02;110058;1243;69134;-74
2023/06/13 02:39:58;;;;;;;;;;;;;;;13.15;100.00;96955.41;110351;1240;69603;-73
2023/06/13 02:42:29;;;;;;;;;;;;;;;13.15;100.00;96953.52;110599;1242;59714;-73
2023/06/13 02:45:00;;;;;;;;;;;;;;;13.16;100.00;96954.26;110189;1240;59697;-73
2023/06/13 02:47:32;;;;;;;;;;;;;;;13.17;100.00;96955.02;110297;1243;70525;-74
2023/06/13 02:50:02;;;;;;;;;;;;;;;13.18;100.00;96949.54;110293;1240;68546;-73
2023/06/13 02:52:33;;;;;;;;;;;;;;;13.18;100.00;96952.84;109996;1244;69317;-73
2023/06/13 02:55:08;;;;;;;;;;;;;;;13.19;100.00;96955.88;110116;1244;59678;-73
2023/06/13 02:57:39;;;;;;;;;;;;;;;13.20;100.00;96957.07;110106;1244;59679;-73
2023/06/13 03:00:11;;;;;;;;;;;;;;;13.20;100.00;96957.76;109919;1240;71300;-73
2023/06/13 03:02:44;;;;;;;;;;;;;;;13.18;100.00;96965.48;110142;1243;69230;-74
2023/06/13 03:05:15;;;;;;;;;;;;;;;13.16;100.00;96966.16;109798;1241;68496;-73
2023/06/13 03:07:50;;;;;;;;;;;;;;;13.16;100.00;96964.75;110109;1244;60091;-73
2023/06/13 03:10:25;;;;;;;;;;;;;;;13.18;100.00;96969.33;110139;1242;59672;-75
2023/06/13 03:12:55;;;;;;;;;;;;;;;13.20;100.00;96966.13;110070;1240;70688;-74
2023/06/13 03:15:26;;;;;;;;;;;;;;;13.22;100.00;96967.39;110130;1240;68364;-73
2023/06/13 03:17:58;;;;;;;;;;;;;;;13.24;100.00;96971.06;110140;1244;69383;-73
2023/06/13 03:20:30;;;;;;;;;;;;;;;13.24;100.00;96967.35;110193;1240;59742;-73
2023/06/13 03:23:02;;;;;;;;;;;;;;;13.26;100.00;96966.35;110171;1242;59659;-73
2023/06/13 03:25:31;;;;;;;;;;;;;;;13.28;100.00;96966.76;110162;1242;71358;-72
2023/06/13 03:28:01;;;;;;;;;;;;;;;13.29;100.00;96965.20;110141;1240;68554;-75
2023/06/13 03:30:30;;;;;;;;;;;;;;;13.31;100.00;96966.96;110173;1240;69289;-73
2023/06/13 03:32:59;;;;;;;;;;;;;;;13.32;100.00;96964.92;110181;1240;59682;-74
2023/06/13 03:35:30;;;;;;;;;;;;;;;13.34;100.00;96963.92;110125;1243;60111;-74
2023/06/13 03:38:00;;;;;;;;;;;;;;;13.35;100.00;96964.80;110126;1242;71439;-74
2023/06/13 03:40:32;;;;;;;;;;;;;;;13.36;100.00;96965.66;110172;1243;69254;-75
2023/06/13 03:43:01;;;;;;;;;;;;;;;13.35;100.00;96966.90;110106;1244;69187;-75
2023/06/13 03:45:33;;;;;;;;;;;;;;;13.37;100.00;96966.45;110319;1240;59725;-74
2023/06/13 03:48:03;;;;;;;;;;;;;;;13.38;100.00;96964.77;110594;1240;59692;-74
2023/06/13 03:50:33;;;;;;;;;;;;;;;13.38;100.00;96963.04;110186;1244;70713;-74
2023/06/13 03:53:02;;;;;;;;;;;;;;;13.38;100.00;96964.78;110155;1244;69240;-74
2023/06/13 03:55:32;;;;;;;;;;;;;;;13.38;100.00;96966.30;110137;1244;69128;-73
2023/06/13 03:58:02;;;;;;;;;;;;;;;13.33;100.00;96965.33;110113;1245;59684;-73
2023/06/13 04:00:32;;;;;;;;;;;;;;;13.31;100.00;96969.42;110155;1243;60129;-73
2023/06/13 04:03:02;;;;;;;;;;;;;;;13.30;100.00;96970.77;110084;1243;70787;-73
2023/06/13 04:05:32;;;;;;;;;;;;;;;13.28;100.00;96967.28;110153;1246;69343;-75
2023/06/13 04:08:05;;;;;;;;;;;;;;;13.25;100.00;96969.40;110308;1241;69283;-73
2023/06/13 04:10:34;;;;;;;;;;;;;;;13.24;100.00;96970.34;110365;1244;59736;-74
2023/06/13 04:13:03;;;;;;;;;;;;;;;13.21;100.00;96967.98;110293;1240;59696;-74
2023/06/13 04:15:32;;;;;;;;;;;;;;;13.21;100.00;96969.70;109825;1244;71446;-72
2023/06/13 04:18:04;;;;;;;;;;;;;;;13.20;100.00;96969.41;110151;1240;68544;-74
2023/06/13 04:20:36;;;;;;;;;;;;;;;13.21;100.00;96969.05;110122;1241;69315;-75
2023/06/13 04:23:07;;;;;;;;;;;;;;;13.21;100.00;96972.38;110198;1242;59686;-75
2023/06/13 04:25:40;;;;;;;;;;;;;;;13.20;100.00;96969.64;110184;1242;59645;-74
2023/06/13 04:28:13;;;;;;;;;;;;;;;13.20;100.00;96973.67;110107;1240;71326;-73
2023/06/13 04:30:42;;;;;;;;;;;;;;;13.19;100.00;96972.55;110106;1246;69060;-73
2023/06/13 04:33:17;;;;;;;;;;;;;;;13.21;100.00;96975.46;110190;1244;68265;-73
2023/06/13 04:35:48;;;;;;;;;;;;;;;13.23;100.00;96974.83;110124;1246;59689;-73
2023/06/13 04:38:21;;;;;;;;;;;;;;;13.24;100.00;96979.79;110111;1240;59740;-73
2023/06/13 04:40:50;;;;;;;;;;;;;;;13.27;100.00;96978.69;110304;1242;71231;-73
2023/06/13 04:43:19;;;;;;;;;;;;;;;13.30;100.00;96978.95;110235;1242;69272;-75
2023/06/13 04:45:49;;;;;;;;;;;;;;;13.31;100.00;96979.71;110235;1243;67547;-75
2023/06/13 04:48:18;;;;;;;;;;;;;;;13.34;100.00;96979.82;110242;1240;59679;-74
2023/06/13 04:50:48;;;;;;;;;;;;;;;13.38;100.00;96978.73;110362;1244;59674;-74
2023/06/13 04:53:21;;;;;;;;;;;;;;;13.41;100.00;96977.73;110842;1242;72002;-73
2023/06/13 04:55:51;;;;;;;;;;;;;;;13.47;100.00;96981.98;110892;1242;69303;-74
2023/06/13 04:58:23;;;;;;;;;;;;;;;13.49;100.00;96983.30;110313;1242;68530;-73
2023/06/13 05:00:54;;;;;;;;;;;;;;;13.54;100.00;96982.23;110200;1242;59687;-73
2023/06/13 05:03:25;;;;;;;;;;;;;;;13.57;100.00;96983.95;110231;1242;59736;-74
2023/06/13 05:05:55;;;;;;;;;;;;;;;13.60;100.00;96981.44;110140;1240;71254;-74
2023/06/13 05:08:24;;;;;;;;;;;;;;;13.64;100.00;96980.72;110120;1244;69556;-73
2023/06/13 05:10:53;;;;;;;;;;;;;;;13.64;100.00;96979.86;110168;1241;69076;-73
2023/06/13 05:13:22;;;;;;;;;;;;;;;13.65;100.00;96983.45;110146;1243;59667;-73
2023/06/13 05:15:54;;;;;;;;;;;;;;;13.64;100.00;96981.61;110117;1243;59604;-74
2023/06/13 05:18:24;;;;;;;;;;;;;;;13.63;100.00;96981.02;110276;1242;71370;-73
2023/06/13 05:20:53;;;;;;;;;;;;;;;13.63;100.00;96980.30;110274;1240;68520;-73
2023/06/13 05:23:23;;;;;;;;;;;;;;;13.63;100.00;96978.17;110253;1240;69130;-73
2023/06/13 05:25:53;;;;;;;;;;;;;;;13.67;100.00;96979.61;110073;1242;59718;-73
2023/06/13 05:28:22;;;;;;;;;;;;;;;13.69;100.00;96978.48;110124;1242;59916;-74
2023/06/13 05:30:52;;;;;;;;;;;;;;;13.71;100.00;96980.39;110272;1244;70822;-75
2023/06/13 05:33:21;;;;;;;;;;;;;;;13.72;100.00;96984.35;110226;1244;68547;-74
2023/06/13 05:35:50;;;;;;;;;;;;;;;13.78;100.00;96988.93;110266;1243;68676;-74
2023/06/13 05:38:26;;;;;;;;;;;;;;;13.77;100.00;96982.85;110252;1242;59681;-74
2023/06/13 05:40:55;;;;;;;;;;;;;;;13.82;100.00;96981.03;110255;1243;59741;-73
2023/06/13 05:43:23;;;;;;;;;;;;;;;13.88;100.00;96981.14;110268;1240;71976;-74
2023/06/13 05:45:52;;;;;;;;;;;;;;;13.91;100.00;96981.54;110263;1242;69285;-74
2023/06/13 05:48:21;;;;;;;;;;;;;;;13.94;100.00;96983.85;110226;1243;69266;-74
2023/06/13 05:50:50;;;;;;;;;;;;;;;13.96;100.00;96987.27;110245;1242;59727;-74
2023/06/13 05:53:19;;;;;;;;;;;;;;;13.98;100.00;96984.44;110284;1240;59710;-74
2023/06/13 05:55:48;;;;;;;;;;;;;;;14.03;100.00;96984.46;110255;1241;71404;-74
2023/06/13 05:58:16;;;;;;;;;;;;;;;14.02;100.00;96985.77;110366;1246;69830;-75
2023/06/13 06:00:45;;;;;;;;;;;;;;;14.00;100.00;96987.52;110548;1242;69339;-74
2023/06/13 06:03:14;;;;;;;;;;;;;;;14.00;100.00;96988.91;110262;1241;59764;-74
2023/06/13 06:05:43;;;;;;;;;;;;;;;14.02;100.00;96985.83;110290;1242;60164;-73
2023/06/13 06:08:12;;;;;;;;;;;;;;;14.05;100.00;96993.42;110273;1242;70540;-73
2023/06/13 06:10:41;;;;;;;;;;;;;;;14.07;100.00;96986.23;110279;1243;69243;-75
2023/06/13 06:13:10;;;;;;;;;;;;;;;14.13;100.00;96989.16;110156;1241;69116;-73
2023/06/13 06:15:40;;;;;;;;;;;;;;;14.18;100.00;96987.60;110166;1243;59737;-73
2023/06/13 06:18:09;;;;;;;;;;;;;;;14.24;100.00;96988.23;110179;1243;59725;-73
2023/06/13 06:20:38;;;;;;;;;;;;;;;14.29;100.00;96986.95;110182;1242;72020;-74
2023/06/13 06:23:07;;;;;;;;;;;;;;;14.24;100.00;96988.64;110188;1242;69249;-75
2023/06/13 06:25:36;;;;;;;;;;;;;;;14.25;100.00;96986.38;110172;1244;68434;-73
2023/06/13 06:28:05;;;;;;;;;;;;;;;14.23;100.00;96988.20;110191;1240;59744;-73
2023/06/13 06:30:35;;;;;;;;;;;;;;;14.23;100.00;96989.42;110217;1242;59640;-74
2023/06/13 06:33:04;;;;;;;;;;;;;;;14.29;100.00;96988.72;110162;1242;71355;-75
2023/06/13 06:35:35;;;;;;;;;;;;;;;14.31;100.00;96990.74;110196;1242;68473;-74
2023/06/13 06:38:04;;;;;;;;;;;;;;;14.31;100.00;96993.44;110188;1243;69268;-73
2023/06/13 06:40:33;;;;;;;;;;;;;;;14.25;100.00;96987.66;110140;1242;60068;-73
2023/06/13 06:43:01;;;;;;;;;;;;;;;14.24;100.00;96989.34;110189;1244;59615;-73
2023/06/13 06:45:35;;;;;;;;;;;;;;;14.22;100.00;96990.53;110193;1241;71717;-73
2023/06/13 06:48:04;;;;;;;;;;;;;;;14.23;100.00;96988.90;110001;1243;407879;-74
2023/06/13 06:50:33;;;;;;;;;;;;;;;14.28;100.00;96989.48;110118;1245;68561;-72
2023/06/13 06:53:02;;;;;;;;;;;;;;;14.33;100.00;96987.79;110174;1242;59680;-74
2023/06/13 06:55:30;;;;;;;;;;;;;;;14.38;100.00;96983.50;110115;1243;59745;-74
2023/06/13 06:58:00;;;;;;;;;;;;;;;14.38;100.00;96982.73;110175;1244;71293;-74
2023/06/13 07:00:29;;;;;;;;;;;;;;;14.43;100.00;96987.38;110184;1241;68495;-73
2023/06/13 07:02:59;;;;;;;;;;;;;;;14.44;100.00;96990.06;110163;1242;69161;-74
2023/06/13 07:05:28;;;;;;;;;;;;;;;14.46;100.00;96986.50;110239;1242;60062;-74
2023/06/13 07:07:57;;;;;;;;;;;;;;;14.48;100.00;96982.87;110236;1243;59744;-72
2023/06/13 07:10:27;;;;;;;;;;;;;;;14.54;100.00;96983.73;110195;1241;70515;-73
2023/06/13 07:12:56;;;;;;;;;;;;;;;14.60;100.00;96984.14;110189;1244;68752;-73
2023/06/13 07:15:25;;;;;;;;;;;;;;;14.66;100.00;96985.35;110193;1244;69743;-73
2023/06/13 07:17:54;;;;;;;;;;;;;;;14.71;100.00;96986.59;110176;1243;59672;-73
2023/06/13 07:20:24;;;;;;;;;;;;;;;14.74;100.00;96987.20;110220;1245;59643;-74
2023/06/13 07:22:52;;;;;;;;;;;;;;;14.71;100.00;96987.30;110147;1245;70684;-73
2023/06/13 07:25:21;;;;;;;;;;;;;;;14.66;100.00;96984.33;110215;1242;69063;-74
2023/06/13 07:27:50;;;;;;;;;;;;;;;14.66;100.00;96982.50;110188;1245;69919;-75
2023/06/13 07:30:19;;;;;;;;;;;;;;;14.70;100.00;96985.37;110322;1245;60135;-74
2023/06/13 07:32:47;;;;;;;;;;;;;;;14.68;100.00;96982.66;110241;1244;59697;-73
2023/06/13 07:35:16;;;;;;;;;;;;;;;14.70;100.00;96989.55;110288;1242;71347;-74
2023/06/13 07:37:45;;;;;;;;;;;;;;;14.76;100.00;96989.47;110271;1241;68084;-73
2023/06/13 07:40:14;;;;;;;;;;;;;;;14.90;100.00;96989.06;110244;1242;68517;-73
2023/06/13 07:42:43;;;;;;;;;;;;;;;14.94;100.00;96988.26;110217;1242;59764;-73
2023/06/13 07:45:12;;;;;;;;;;;;;;;15.02;100.00;96991.49;110212;1242;59635;-73
2023/06/13 07:47:41;;;;;;;;;;;;;;;15.05;100.00;96989.65;110123;1242;71475;-73
2023/06/13 07:50:11;;;;;;;;;;;;;;;15.06;100.00;96989.02;110173;1252;69098;-73
2023/06/13 07:52:40;;;;;;;;;;;;;;;15.05;100.00;96990.36;110188;1242;70055;-73
2023/06/13 07:55:09;;;;;;;;;;;;;;;15.07;100.00;96991.75;110179;1242;59747;-72
2023/06/13 07:57:38;;;;;;;;;;;;;;;15.13;100.00;96986.98;110212;1242;59692;-72
2023/06/13 08:00:27;;;;;;;;;;;;;;;15.23;100.00;96985.64;110169;1245;72095;-73
2023/06/13 08:02:56;;;;;;;;;;;;;;;15.36;100.00;96985.89;110157;1242;68492;-75
2023/06/13 08:05:26;;;;;;;;;;;;;;;15.49;100.00;96985.98;110082;1242;69137;-74
2023/06/13 08:07:56;;;;;;;;;;;;;;;15.60;100.00;96988.09;110300;1242;59746;-75
2023/06/13 08:10:28;;;;;;;;;;;;;;;15.68;100.00;96988.02;110323;1241;59672;-74
2023/06/13 08:12:59;;;;;;;;;;;;;;;15.58;100.00;96991.10;110355;1243;70621;-73
2023/06/13 08:15:28;;;;;;;;;;;;;;;15.68;100.00;96994.31;110004;1247;69838;-74
2023/06/13 08:17:57;;;;;;;;;;;;;;;15.74;100.00;96992.65;110205;1241;68413;-73
2023/06/13 08:20:26;;;;;;;;;;;;;;;15.72;100.00;96994.11;110135;1246;60057;-73
2023/06/13 08:22:56;;;;;;;;;;;;;;;15.70;100.00;96991.52;110170;1242;59749;-73
2023/06/13 08:25:24;;;;;;;;;;;;;;;15.74;100.00;96991.25;110186;1241;71443;-73
2023/06/13 08:27:54;;;;;;;;;;;;;;;15.75;100.00;96992.39;110155;1243;69137;-73
2023/06/13 08:30:24;;;;;;;;;;;;;;;15.70;100.00;96989.90;110145;1241;68657;-73
2023/06/13 08:32:54;;;;;;;;;;;;;;;15.72;100.00;96994.60;110200;1241;59765;-73
2023/06/13 08:35:23;;;;;;;;;;;;;;;15.65;100.00;96991.42;110151;1241;59676;-73
2023/06/13 08:37:52;;;;;;;;;;;;;;;15.59;100.00;96991.50;110177;1242;72123;-73
2023/06/13 08:40:21;;;;;;;;;;;;;;;15.55;100.00;96990.55;110152;1242;69204;-73
2023/06/13 08:42:51;;;;;;;;;;;;;;;15.53;100.00;96987.02;110154;1249;68530;-73
2023/06/13 08:45:20;;;;;;;;;;;;;;;15.56;100.00;96984.66;110148;1241;59707;-73
2023/06/13 08:47:49;;;;;;;;;;;;;;;15.57;100.00;96987.53;110211;1242;59678;-73
2023/06/13 08:50:23;;;;;;;;;;;;;;;15.58;100.00;96985.50;110169;1240;71381;-73
2023/06/13 08:52:54;;;;;;;;;;;;;;;15.60;100.00;96982.33;110160;1246;68742;-73
2023/06/13 08:55:24;;;;;;;;;;;;;;;15.62;100.00;96979.44;110174;1249;69835;-73
2023/06/13 08:58:15;;;;;;;;;;;;;;;15.65;100.00;96984.46;110147;1249;59760;-73
2023/06/13 09:00:47;;;;;;;;;;;;;;;15.67;100.00;96982.08;110147;1242;59695;-73
2023/06/13 09:03:17;;;;;;;;;;;;;;;15.75;100.00;96981.31;110169;1243;71960;-73
2023/06/13 09:05:47;;;;;;;;;;;;;;;15.85;100.00;96980.06;110191;1242;68550;-73
2023/06/13 09:08:17;;;;;;;;;;;;;;;15.92;100.00;96973.13;110155;1241;68519;-73
2023/06/13 09:11:00;;;;;;;;;;;;;;;16.04;100.00;96974.70;110153;1242;59681;-73
2023/06/13 09:13:29;;;;;;;;;;;;;;;16.22;100.00;96972.34;110127;1249;59630;-74
2023/06/13 09:15:58;;;;;;;;;;;;;;;16.44;100.00;96970.60;110281;1243;71951;-74
2023/06/13 09:18:28;;;;;;;;;;;;;;;16.64;100.00;96974.79;110188;1246;69800;-74
2023/06/13 09:20:58;;;;;;;;;;;;;;;16.81;100.00;96977.33;110252;1246;70351;-73
2023/06/13 09:23:26;;;;;;;;;;;;;;;16.92;100.00;96972.81;110196;1245;59760;-74
2023/06/13 09:25:57;;;;;;;;;;;;;;;17.05;100.00;96978.48;110227;1242;59735;-74
2023/06/13 09:28:30;;;;;;;;;;;;;;;17.11;100.00;96978.59;110153;1242;70654;-74
2023/06/13 09:30:59;;;;;;;;;;;;;;;17.24;100.00;96978.70;110151;1242;68500;-72
2023/06/13 09:33:28;;;;;;;;;;;;;;;17.28;100.00;96976.36;110165;1242;69089;-73
2023/06/13 09:35:58;;;;;;;;;;;;;;;17.31;100.00;96973.92;110195;1242;59718;-73
2023/06/13 09:38:34;;;;;;;;;;;;;;;17.37;100.00;96975.94;110178;1242;59668;-73
2023/06/13 09:41:04;;;;;;;;;;;;;;;17.45;100.00;96973.73;110169;1243;70645;-73
2023/06/13 09:43:33;;;;;;;;;;;;;;;17.55;100.00;96973.83;110141;1242;70132;-73
2023/06/13 09:46:02;;;;;;;;;;;;;;;17.68;99.96;96974.73;110151;1241;69282;-72
2023/06/13 09:48:31;;;;;;;;;;;;;;;17.82;99.86;96975.73;110155;1249;59748;-74
2023/06/13 09:51:04;;;;;;;;;;;;;;;18.09;100.00;96978.52;110161;1242;59684;-73
2023/06/13 09:53:34;;;;;;;;;;;;;;;18.38;98.69;96976.69;110223;1242;71768;-74
2023/06/13 09:56:06;;;;;;;;;;;;;;;18.72;99.50;96974.64;110300;1241;68490;-74
2023/06/13 09:58:36;;;;;;;;;;;;;;;19.02;97.28;96977.17;110286;1242;68690;-74
2023/06/13 10:01:06;;;;;;;;;;;;;;;19.30;95.98;96973.45;110261;1243;59771;-72
2023/06/13 10:03:35;;;;;;;;;;;;;;;19.71;93.80;96971.23;110217;1244;59658;-74
2023/06/13 10:06:04;;;;;;;;;;;;;;;20.05;91.89;96964.95;110206;1242;71417;-75
2023/06/13 10:08:34;;;;;;;;;;;;;;;20.30;87.41;96960.90;110189;1241;69388;-74
2023/06/13 10:11:13;;;;;;;;;;;;;;;20.43;84.92;96956.80;110179;1241;69393;-74
2023/06/13 10:13:49;;;;;;;;;;;;;;;20.60;85.97;96956.98;110177;1243;59760;-75
2023/06/13 10:16:20;;;;;;;;;;;;;;;20.94;83.03;96954.69;110188;1242;59689;-75
2023/06/13 10:18:52;;;;;;;;;;;;;;;21.04;78.79;96950.42;110343;1242;71951;-74
2023/06/13 10:21:22;;;;;;;;;;;;;;;21.42;81.14;96951.20;110271;1241;69225;-75
2023/06/13 10:23:51;;;;;;;;;;;;;;;21.58;77.58;96950.14;110248;1242;69235;-75
2023/06/13 10:26:27;;;;;;;;;;;;;;;21.66;79.60;96946.77;110787;1242;59674;-75
2023/06/13 10:29:12;;;;;;;;;;;;;;;21.58;77.12;96950.83;110391;1242;59633;-75
2023/06/13 10:31:41;;;;;;;;;;;;;;;21.40;75.76;96952.52;110303;1242;71319;-73
2023/06/13 10:34:14;;;;;;;;;;;;;;;21.29;75.01;96944.30;110168;1242;69120;-73
2023/06/13 10:37:00;;;;;;;;;;;;;;;21.37;77.06;96941.19;110193;1242;68869;-73
2023/06/13 10:39:32;;;;;;;;;;;;;;;21.72;75.44;96935.04;110257;1242;59741;-75
2023/06/13 10:42:12;;;;;;;;;;;;;;;21.59;72.48;96936.70;110216;1241;59631;-74
2023/06/13 10:44:45;;;;;;;;;;;;;;;21.99;73.92;96933.89;110277;1242;71403;-74
2023/06/13 10:47:16;;;;;;;;;;;;;;;22.32;72.21;96936.08;110289;1243;69231;-74
2023/06/13 10:49:47;;;;;;;;;;;;;;;22.29;68.18;96933.67;110268;1241;69872;-75
2023/06/13 10:52:17;;;;;;;;;;;;;;;22.19;67.85;96928.33;110295;1242;59673;-74
2023/06/13 10:54:56;;;;;;;;;;;;;;;22.16;67.83;96929.13;110263;1242;59628;-74
2023/06/13 10:57:43;;;;;;;;;;;;;;;22.21;68.44;96924.29;110281;1241;71174;-73
2023/06/13 11:00:23;;;;;;;;;;;;;;;21.98;68.13;96921.79;110122;1243;69626;-74
2023/06/13 11:02:59;;;;;;;;;;;;;;;21.76;68.21;96926.51;110158;1249;69192;-74
2023/06/13 11:05:29;;;;;;;;;;;;;;;21.70;69.59;96927.83;110140;1242;59719;-74
2023/06/13 11:08:24;;;;;;;;;;;;;;;21.74;69.04;96929.98;110186;1242;59695;-74
2023/06/13 11:10:55;;;;;;;;;;;;;;;21.75;70.01;96926.66;110178;1242;70723;-74
2023/06/13 11:13:26;;;;;;;;;;;;;;;21.73;70.12;96924.45;110290;1242;69253;-75
2023/06/13 11:15:55;;;;;;;;;;;;;;;21.99;69.83;96923.48;110239;1242;69881;-73
2023/06/13 11:18:25;;;;;;;;;;;;;;;22.15;67.81;96921.75;110234;1242;59700;-74
2023/06/13 11:20:58;;;;;;;;;;;;;;;22.20;67.10;96919.02;110272;1241;59763;-75
2023/06/13 11:23:33;;;;;;;;;;;;;;;22.24;67.34;96920.59;110286;1241;71359;-75
2023/06/13 11:26:02;;;;;;;;;;;;;;;22.44;67.08;96914.33;110276;1241;69212;-72
2023/06/13 11:28:32;;;;;;;;;;;;;;;22.80;64.79;96916.02;110125;1242;68442;-76
2023/06/13 11:31:05;;;;;;;;;;;;;;;23.18;64.61;96916.58;110328;1242;59673;-74
2023/06/13 11:33:43;;;;;;;;;;;;;;;23.57;63.74;96916.83;110543;1242;59669;-73
2023/06/13 11:36:14;;;;;;;;;;;;;;;23.54;60.80;96911.05;110123;1242;71402;-76
2023/06/13 11:38:49;;;;;;;;;;;;;;;23.80;60.26;96913.64;110295;1242;67812;-75
2023/06/13 11:41:18;;;;;;;;;;;;;;;23.80;60.14;96915.80;110271;1242;69241;-73
2023/06/13 11:43:47;;;;;;;;;;;;;;;23.87;60.70;96915.69;110257;1242;59751;-75
2023/06/13 11:46:16;;;;;;;;;;;;;;;23.91;60.40;96912.77;110274;1242;59675;-74
2023/06/13 11:48:44;;;;;;;;;;;;;;;24.39;60.52;96913.45;110257;1242;71408;-74
2023/06/13 11:51:19;;;;;;;;;;;;;;;24.53;58.69;96911.19;110242;1245;70196;-74
2023/06/13 11:53:52;;;;;;;;;;;;;;;24.38;58.24;96910.20;110249;1245;69857;-74
2023/06/13 11:56:22;;;;;;;;;;;;;;;24.19;59.30;96910.45;110258;1242;59771;-75
2023/06/13 11:58:52;;;;;;;;;;;;;;;24.13;60.21;96903.96;110298;1242;59732;-75
2023/06/13 12:01:24;;;;;;;;;;;;;;;24.09;60.30;96906.96;110263;1242;71281;-74
2023/06/13 12:03:58;;;;;;;;;;;;;;;24.18;59.81;96901.86;110268;1242;69227;-75
2023/06/13 12:06:28;;;;;;;;;;;;;;;24.12;57.85;96903.55;110244;1241;69480;-74
2023/06/13 12:08:59;;;;;;;;;;;;;;;23.84;58.21;96905.05;110280;1243;59697;-76
2023/06/13 12:11:29;;;;;;;;;;;;;;;23.72;58.45;96902.31;110247;1242;59669;-74
2023/06/13 12:13:59;;;;;;;;;;;;;;;23.80;59.21;96901.16;110273;1242;71409;-73
2023/06/13 12:16:29;;;;;;;;;;;;;;;23.98;59.25;96901.04;110282;1240;69832;-74
2023/06/13 12:18:59;;;;;;;;;;;;;;;23.94;58.52;96897.11;110292;1242;69404;-75
2023/06/13 12:21:30;;;;;;;;;;;;;;;23.94;58.61;96897.85;110269;1242;59751;-74
2023/06/13 12:24:00;;;;;;;;;;;;;;;23.97;59.03;96897.10;110272;1242;59674;-74
2023/06/13 12:26:33;;;;;;;;;;;;;;;23.71;58.83;96902.92;110347;1241;71929;-74
2023/06/13 12:29:11;;;;;;;;;;;;;;;23.51;59.08;96899.51;110266;1240;69731;-75
2023/06/13 12:31:42;;;;;;;;;;;;;;;23.32;59.25;96891.66;110275;1240;69732;-75
2023/06/13 12:34:16;;;;;;;;;;;;;;;23.31;59.40;96893.14;110332;1241;59750;-74
2023/06/13 12:36:46;;;;;;;;;;;;;;;23.40;59.35;96890.35;110686;1241;59740;-74
2023/06/13 12:39:16;;;;;;;;;;;;;;;23.22;58.79;96893.33;110789;1243;71257;-72
2023/06/13 12:41:45;;;;;;;;;;;;;;;23.07;58.46;96893.11;110318;1241;69221;-74
2023/06/13 12:44:13;;;;;;;;;;;;;;;22.86;59.12;96894.69;110284;1241;67556;-75
2023/06/13 12:46:43;;;;;;;;;;;;;;;22.59;59.96;96889.85;110294;1241;59716;-74
2023/06/13 12:49:14;;;;;;;;;;;;;;;22.28;61.36;96895.58;110273;1241;59742;-75